createdAt,value
2023-05-14T00:00:20.596Z,9.40
2023-05-14T00:03:09.244Z,9.30
2023-05-14T00:05:37.686Z,11.40
2023-05-14T00:08:06.353Z,8.20
2023-05-14T00:11:38.462Z,8.90
2023-05-14T00:15:28.144Z,8.70
2023-05-14T00:19:17.919Z,11.60
2023-05-14T00:23:07.621Z,10.00
2023-05-14T00:26:57.530Z,10.20
2023-05-14T00:46:26.162Z,9.50
2023-05-14T00:50:15.624Z,10.40
2023-05-14T00:54:05.235Z,9.40
2023-05-14T01:09:21.375Z,10.50
2023-05-14T01:13:16.414Z,8.20
2023-05-14T01:17:05.768Z,8.80
2023-05-14T01:20:55.072Z,9.50
2023-05-14T01:24:44.519Z,7.40
2023-05-14T01:28:37.174Z,8.00
2023-05-14T01:48:04.409Z,7.70
2023-05-14T01:51:30.698Z,9.20
2023-05-14T01:55:12.641Z,8.50
2023-05-14T01:59:02.306Z,9.30
2023-05-14T02:06:03.596Z,12.00
2023-05-14T02:47:33.108Z,8.00
2023-05-14T02:51:22.403Z,8.50
2023-05-14T02:55:04.629Z,9.40
2023-05-14T02:58:54.418Z,9.90
2023-05-14T03:18:23.366Z,10.90
2023-05-14T03:22:12.633Z,8.30
2023-05-14T03:25:54.448Z,9.50
2023-05-14T03:37:34.809Z,11.60
2023-05-14T03:41:17.684Z,10.90
2023-05-14T03:44:59.877Z,10.50
2023-05-14T03:48:50.346Z,11.20
2023-05-14T03:52:40.584Z,9.20
2023-05-14T03:56:16.696Z,10.50
2023-05-14T04:11:58.331Z,12.40
2023-05-14T04:15:47.934Z,11.30
2023-05-14T04:31:07.419Z,9.10
2023-05-14T04:34:56.637Z,11.50
2023-05-14T04:38:46.019Z,9.80
2023-05-14T04:54:27.661Z,8.00
2023-05-14T04:58:16.996Z,9.70
2023-05-14T05:02:06.025Z,10.20
2023-05-14T05:05:55.425Z,8.70
2023-05-14T05:09:44.934Z,8.80
2023-05-14T05:25:26.662Z,7.70
2023-05-14T05:29:08.990Z,7.50
2023-05-14T05:32:58.732Z,6.10
2023-05-14T05:36:43.035Z,6.10
2023-05-14T05:55:54.100Z,8.20
2023-05-14T06:03:12.753Z,6.50
2023-05-14T06:14:28.227Z,6.50
2023-05-14T06:18:17.739Z,8.30
2023-05-14T06:22:07.267Z,7.30
2023-05-14T06:44:44.427Z,7.10
2023-05-14T06:48:33.768Z,6.60
2023-05-14T07:03:55.470Z,7.20
2023-05-14T07:07:44.868Z,6.10
2023-05-14T07:26:54.276Z,5.80
2023-05-14T07:34:13.187Z,7.70
2023-05-14T07:39:35.112Z,5.40
2023-05-14T07:42:41.686Z,6.40
2023-05-14T07:46:32.852Z,6.10
2023-05-14T08:12:54.213Z,7.60
2023-05-14T08:16:44.492Z,4.80
2023-05-14T08:32:23.327Z,14.70
2023-05-14T08:36:13.495Z,31.80
2023-05-14T08:40:02.993Z,19.10
2023-05-14T08:44:31.822Z,17.50
2023-05-14T08:48:22.264Z,10.00
2023-05-14T09:03:42.760Z,6.60
2023-05-14T09:07:28.043Z,6.00
2023-05-14T09:11:16.876Z,5.20
2023-05-14T09:43:43.894Z,4.90
2023-05-14T09:46:12.361Z,4.50
2023-05-14T09:48:41.862Z,4.40
2023-05-14T09:51:11.947Z,3.50
2023-05-14T09:53:41.530Z,3.40
2023-05-14T09:56:10.159Z,4.50
2023-05-14T09:58:39.155Z,5.70
2023-05-14T10:01:08.868Z,6.10
2023-05-14T10:03:40.948Z,7.10
2023-05-14T10:06:16.459Z,5.80
2023-05-14T10:08:49.017Z,4.20
2023-05-14T10:11:28.000Z,5.40
2023-05-14T10:14:08.825Z,4.40
2023-05-14T10:16:51.927Z,4.90
2023-05-14T10:19:25.837Z,3.60
2023-05-14T10:22:04.910Z,3.70
2023-05-14T10:24:36.453Z,4.20
2023-05-14T10:27:05.732Z,5.60
2023-05-14T10:29:37.042Z,3.30
2023-05-14T10:32:09.445Z,4.60
2023-05-14T10:34:48.866Z,4.90
2023-05-14T10:37:21.527Z,4.40
2023-05-14T10:39:56.618Z,5.40
2023-05-14T10:42:27.929Z,3.40
2023-05-14T10:45:07.536Z,4.50
2023-05-14T10:47:38.832Z,6.10
2023-05-14T10:50:09.460Z,6.00
2023-05-14T10:52:38.061Z,4.60
2023-05-14T10:55:07.928Z,5.80
2023-05-14T10:57:38.537Z,3.40
2023-05-14T11:00:09.219Z,3.70
2023-05-14T11:02:43.357Z,4.40
2023-05-14T11:05:17.914Z,6.30
2023-05-14T11:07:56.177Z,5.70
2023-05-14T11:10:31.696Z,12.70
2023-05-14T12:10:50.949Z,4.00
2023-05-14T12:13:40.029Z,3.80
2023-05-14T12:16:33.990Z,4.40
2023-05-14T12:19:04.077Z,4.00
2023-05-14T12:21:32.671Z,4.20
2023-05-14T12:24:01.579Z,4.30
2023-05-14T12:27:04.757Z,4.70
2023-05-14T12:30:20.048Z,4.80
2023-05-14T12:32:54.558Z,4.70
2023-05-14T12:35:23.524Z,3.50
2023-05-14T12:40:20.637Z,3.50
2023-05-14T12:42:51.782Z,5.30
2023-05-14T12:45:20.211Z,3.90
2023-05-14T12:47:48.677Z,9.00
2023-05-14T12:50:20.327Z,10.30
2023-05-14T12:52:48.849Z,3.90
2023-05-14T12:55:17.414Z,4.10
2023-05-14T12:57:45.891Z,4.00
2023-05-14T13:00:15.647Z,4.90
2023-05-14T13:02:44.524Z,3.80
2023-05-14T13:05:13.085Z,5.60
2023-05-14T13:07:41.863Z,3.50
2023-05-14T13:10:10.636Z,3.60
2023-05-14T13:12:38.943Z,4.50
2023-05-14T13:15:07.845Z,4.20
2023-05-14T13:17:38.654Z,3.40
2023-05-14T13:20:18.248Z,3.50
2023-05-14T13:22:46.890Z,4.10
2023-05-14T13:25:15.243Z,3.30
2023-05-14T13:27:43.586Z,3.30
2023-05-14T13:30:12.453Z,4.90
2023-05-14T13:32:42.278Z,4.30
2023-05-14T13:35:11.697Z,5.30
2023-05-14T13:40:09.570Z,5.90
2023-05-14T13:42:39.891Z,4.00
2023-05-14T13:45:08.744Z,4.20
2023-05-14T13:47:37.173Z,3.20
2023-05-14T13:50:05.975Z,2.90
2023-05-14T13:52:34.404Z,5.00
2023-05-14T13:55:02.750Z,3.90
2023-05-14T13:57:31.580Z,5.10
2023-05-14T14:00:02.307Z,4.00
2023-05-14T14:02:34.187Z,3.20
2023-05-14T14:05:06.378Z,5.00
2023-05-14T14:07:34.905Z,5.40
2023-05-14T14:10:03.307Z,5.20
2023-05-14T14:12:31.930Z,4.50
2023-05-14T14:15:01.296Z,4.90
2023-05-14T14:19:57.908Z,6.40
2023-05-14T14:22:28.203Z,6.90
2023-05-14T14:24:57.970Z,4.50
2023-05-14T14:27:26.514Z,4.50
2023-05-14T14:29:56.945Z,4.00
2023-05-14T14:32:25.296Z,4.00
2023-05-14T14:34:53.836Z,4.50
2023-05-14T14:37:23.145Z,3.80
2023-05-14T14:39:51.826Z,4.70
2023-05-14T14:42:20.294Z,5.60
2023-05-14T14:44:48.520Z,4.10
2023-05-14T14:47:17.106Z,5.40
2023-05-14T14:49:45.559Z,5.60
2023-05-14T14:52:14.129Z,4.00
2023-05-14T14:54:42.645Z,5.80
2023-05-14T14:57:12.257Z,5.60
2023-05-14T14:59:40.850Z,4.30
2023-05-14T15:02:09.901Z,8.30
2023-05-14T15:07:07.763Z,4.70
2023-05-14T15:09:39.672Z,4.60
2023-05-14T15:12:09.803Z,7.00
2023-05-14T15:14:40.094Z,5.10
2023-05-14T15:17:08.752Z,6.60
2023-05-14T15:19:37.083Z,6.00
2023-05-14T15:22:05.620Z,6.60
2023-05-14T15:24:34.010Z,5.20
2023-05-14T15:27:02.313Z,10.10
2023-05-14T15:30:06.675Z,6.10
2023-05-14T15:32:35.851Z,6.30
2023-05-14T15:35:09.337Z,6.20
2023-05-14T15:37:50.559Z,4.80
2023-05-14T15:40:19.351Z,6.60
2023-05-14T15:43:17.354Z,8.40
2023-05-14T15:45:49.460Z,10.60
2023-05-14T15:48:18.274Z,7.60
2023-05-14T15:50:51.186Z,8.40
2023-05-14T15:53:29.426Z,5.10
2023-05-14T15:55:59.816Z,5.40
2023-05-14T16:01:37.867Z,9.00
2023-05-14T16:23:03.283Z,9.40
2023-05-14T16:25:47.634Z,8.30
2023-05-14T16:31:36.157Z,17.20
2023-05-14T16:41:58.110Z,16.90
2023-05-14T16:44:58.556Z,18.40
2023-05-14T16:48:54.613Z,32.70
2023-05-14T16:52:07.715Z,12.20
2023-05-14T16:55:02.821Z,9.50
2023-05-14T16:58:05.720Z,9.40
2023-05-14T17:00:34.316Z,9.70
2023-05-14T17:03:03.361Z,6.00
2023-05-14T17:05:34.916Z,4.80
2023-05-14T17:08:05.140Z,4.40
2023-05-14T17:11:28.734Z,4.30
2023-05-14T17:14:50.875Z,6.20
